createdAt,value
2023-12-09T00:02:41.272Z,102012.25
2023-12-09T00:07:43.351Z,102015.88
2023-12-09T00:12:45.440Z,102012.25
2023-12-09T00:17:47.583Z,101999.13
2023-12-09T00:22:49.596Z,101989.38
2023-12-09T00:27:51.628Z,101975.34
2023-12-09T00:32:53.794Z,101984.09
2023-12-09T00:37:56.029Z,101984.16
2023-12-09T00:42:58.281Z,101975.44
2023-12-09T00:48:01.222Z,101988.59
2023-12-09T00:53:03.404Z,101974.66
2023-12-09T00:58:05.401Z,101989.38
2023-12-09T01:03:07.503Z,102007.13
2023-12-09T01:08:09.630Z,101998.34
2023-12-09T01:13:11.637Z,101993.97
2023-12-09T01:18:14.133Z,102007.13
2023-12-09T01:23:16.232Z,102014.31
2023-12-09T01:28:18.549Z,102019.53
2023-12-09T01:33:20.720Z,102019.53
2023-12-09T01:38:22.872Z,102013.38
2023-12-09T01:43:24.971Z,101997.63
2023-12-09T01:48:27.154Z,102012.44
2023-12-09T01:53:31.123Z,102017.72
2023-12-09T01:58:37.138Z,102006.28
2023-12-09T02:03:39.546Z,102004.50
2023-12-09T02:08:41.712Z,102001.84
2023-12-09T02:14:19.846Z,102030.13
2023-12-09T02:19:22.724Z,102036.28
2023-12-09T02:24:24.957Z,102036.28
2023-12-09T02:29:28.826Z,102028.31
2023-12-09T02:34:32.207Z,102039.84
2023-12-09T02:39:35.187Z,102050.38
2023-12-09T02:44:38.177Z,102032.75
2023-12-09T02:49:40.579Z,102023.97
2023-12-09T02:54:42.698Z,102030.97
2023-12-09T02:59:44.855Z,102043.34
2023-12-09T03:04:46.936Z,102040.72
2023-12-09T03:09:49.002Z,102056.53
2023-12-09T03:14:51.067Z,102075.06
2023-12-09T03:19:53.168Z,102086.59
2023-12-09T03:24:55.231Z,102096.34
2023-12-09T03:29:57.402Z,102093.69
2023-12-09T03:34:59.471Z,102097.25
2023-12-09T03:40:01.479Z,102088.38
2023-12-09T03:45:03.726Z,102093.75
2023-12-09T03:50:06.290Z,102077.00
2023-12-09T03:55:08.778Z,102100.78
2023-12-09T04:00:11.446Z,102090.19
2023-12-09T04:05:13.530Z,102101.63
2023-12-09T04:10:15.729Z,102100.78
2023-12-09T04:15:17.910Z,102104.28
2023-12-09T04:20:20.602Z,102108.72
2023-12-09T04:25:22.802Z,102109.50
2023-12-09T04:30:24.859Z,102117.44
2023-12-09T04:35:26.921Z,102119.25
2023-12-09T04:40:28.913Z,102127.19
2023-12-09T04:45:31.010Z,102140.44
2023-12-09T04:50:33.449Z,102138.84
2023-12-09T04:55:35.485Z,102135.19
2023-12-09T05:00:37.600Z,102125.53
2023-12-09T05:05:39.870Z,102121.97
2023-12-09T05:10:41.881Z,102129.03
2023-12-09T05:15:43.892Z,102133.41
2023-12-09T05:20:46.469Z,102144.88
2023-12-09T05:25:50.996Z,102132.56
2023-12-09T05:30:53.399Z,102137.78
2023-12-09T05:35:55.482Z,102154.59
2023-12-09T05:40:57.772Z,102165.19
2023-12-09T05:46:02.389Z,102164.28
2023-12-09T05:51:06.020Z,102177.59
2023-12-09T05:56:14.913Z,102168.72
2023-12-09T06:01:17.047Z,102164.34
2023-12-09T06:06:19.227Z,102165.19
2023-12-09T06:11:21.761Z,102170.50
2023-12-09T06:16:24.062Z,102164.34
2023-12-09T06:21:26.990Z,102182.88
2023-12-09T06:26:29.171Z,102199.63
2023-12-09T06:31:31.227Z,102182.88
2023-12-09T06:36:33.307Z,102201.34
2023-12-09T06:41:40.604Z,102209.38
2023-12-09T06:46:42.818Z,102220.81
2023-12-09T06:51:45.161Z,102221.75
2023-12-09T06:56:47.272Z,102215.34
2023-12-09T07:01:50.786Z,102198.69
2023-12-09T07:06:52.903Z,102198.78
2023-12-09T07:12:01.843Z,102210.22
2023-12-09T07:17:04.932Z,102227.84
2023-12-09T07:22:07.070Z,102233.19
2023-12-09T07:27:09.117Z,102226.34
2023-12-09T07:32:11.365Z,102240.22
2023-12-09T07:37:16.128Z,102242.16
2023-12-09T07:42:18.355Z,102251.75
2023-12-09T07:47:20.358Z,102248.16
2023-12-09T07:52:22.498Z,102240.22
2023-12-09T07:57:24.502Z,102249.03
2023-12-09T08:02:26.939Z,102253.53
2023-12-09T08:07:29.354Z,102270.28
2023-12-09T08:12:32.657Z,102256.13
2023-12-09T08:17:34.788Z,102257.91
2023-12-09T08:22:37.718Z,102258.69
2023-12-09T08:27:40.006Z,102264.91
2023-12-09T08:32:43.173Z,102267.56
2023-12-09T08:37:45.299Z,102267.69
2023-12-09T08:42:47.669Z,102273.78
2023-12-09T08:47:49.818Z,102286.19
2023-12-09T08:52:53.608Z,102290.56
2023-12-09T08:57:55.779Z,102300.41
2023-12-09T09:02:58.027Z,102307.22
2023-12-09T09:08:00.225Z,102297.56
2023-12-09T09:13:02.404Z,102307.13
2023-12-09T09:18:04.592Z,102306.44
2023-12-09T09:23:06.706Z,102298.50
2023-12-09T09:28:08.773Z,102306.44
2023-12-09T09:33:11.473Z,102313.47
2023-12-09T09:38:14.994Z,102320.75
2023-12-09T09:43:31.918Z,102317.97
2023-12-09T09:48:39.464Z,102326.69
2023-12-09T09:54:08.080Z,102324.97
2023-12-09T09:59:12.150Z,102333.78
2023-12-09T10:04:14.305Z,102333.00
2023-12-09T10:09:16.440Z,102321.47
2023-12-09T10:14:19.326Z,102295.84
2023-12-09T10:19:22.001Z,102294.06
2023-12-09T10:24:24.456Z,102288.69
2023-12-09T10:29:26.762Z,102280.03
2023-12-09T10:34:30.352Z,102282.59
2023-12-09T10:39:32.494Z,102270.28
2023-12-09T10:44:35.240Z,102272.88
2023-12-09T10:49:38.230Z,102270.22
2023-12-09T10:54:40.914Z,102280.81
2023-12-09T10:59:44.797Z,102294.81
2023-12-09T11:04:47.336Z,102294.00
2023-12-09T11:09:49.759Z,102299.28
2023-12-09T11:14:51.786Z,102300.97
2023-12-09T11:19:53.951Z,102297.47
2023-12-09T11:24:56.492Z,102299.19
2023-12-09T11:30:00.790Z,102279.94
2023-12-09T11:35:04.393Z,102256.91
2023-12-09T11:40:07.666Z,102261.34
2023-12-09T11:45:11.101Z,102259.56
2023-12-09T11:50:16.687Z,102245.53
2023-12-09T11:55:19.313Z,102244.50
2023-12-09T12:00:21.539Z,102228.59
2023-12-09T12:05:23.736Z,102212.69
2023-12-09T12:10:25.975Z,102204.75
2023-12-09T12:15:28.242Z,102197.59
2023-12-09T12:20:30.461Z,102186.16
2023-12-09T12:25:32.615Z,102170.25
2023-12-09T12:30:34.881Z,102186.22
2023-12-09T12:35:38.117Z,102198.47
2023-12-09T12:40:40.398Z,102193.09
2023-12-09T12:45:42.811Z,102187.88
2023-12-09T12:50:49.496Z,102171.03
2023-12-09T12:55:53.906Z,102171.88
2023-12-09T13:00:56.292Z,102161.31
2023-12-09T13:05:58.623Z,102167.47
2023-12-09T13:11:01.134Z,102149.06
2023-12-09T13:16:04.267Z,102150.78
2023-12-09T13:21:07.576Z,102147.19
2023-12-09T13:26:09.953Z,102157.75
2023-12-09T13:31:12.389Z,102149.81
2023-12-09T13:36:14.598Z,102156.88
2023-12-09T13:41:16.778Z,102162.16
2023-12-09T13:46:19.095Z,102155.97
2023-12-09T13:51:21.481Z,102156.88
2023-12-09T13:56:23.628Z,102141.75
2023-12-09T14:01:25.977Z,102144.41
2023-12-09T14:06:28.225Z,102155.00
2023-12-09T14:11:32.443Z,102147.91
2023-12-09T14:16:36.610Z,102144.34
2023-12-09T14:21:39.523Z,102173.47
2023-12-09T14:26:41.850Z,102177.84
2023-12-09T14:31:44.097Z,102172.53
2023-12-09T14:36:46.302Z,102167.31
2023-12-09T14:41:48.497Z,102154.06
2023-12-09T14:46:51.989Z,102154.06
2023-12-09T14:51:54.154Z,102162.88
2023-12-09T14:56:56.640Z,102174.34
2023-12-09T15:01:58.877Z,102163.75
2023-12-09T15:07:01.185Z,102176.06
2023-12-09T15:12:03.644Z,102170.69
2023-12-09T15:17:07.153Z,102168.03
2023-12-09T15:22:09.596Z,102154.00
2023-12-09T15:27:11.962Z,102170.59
2023-12-09T15:32:14.154Z,102169.72
2023-12-09T15:37:16.518Z,102191.88
2023-12-09T15:42:18.946Z,102203.34
2023-12-09T15:47:21.210Z,102201.63
2023-12-09T15:52:23.413Z,102208.53
2023-12-09T15:57:25.960Z,102198.88
2023-12-09T16:02:28.626Z,102210.31
2023-12-09T16:07:30.980Z,102213.84
2023-12-09T16:12:33.240Z,102206.66
2023-12-09T16:17:36.404Z,102208.47
2023-12-09T16:22:39.296Z,102205.88
2023-12-09T16:27:41.588Z,102207.66
2023-12-09T16:32:43.940Z,102208.47
2023-12-09T16:37:46.318Z,102215.47
2023-12-09T16:42:49.240Z,102197.88
2023-12-09T16:47:52.660Z,102187.25
2023-12-09T16:52:55.086Z,102191.56
2023-12-09T16:57:57.365Z,102190.69
2023-12-09T17:02:59.579Z,102198.72
2023-12-09T17:08:01.797Z,102181.03
2023-12-09T17:13:04.017Z,102184.47
2023-12-09T17:18:06.376Z,102175.66
2023-12-09T17:23:08.548Z,102171.28
2023-12-09T17:28:10.683Z,102177.44
2023-12-09T17:33:12.902Z,102192.41
2023-12-09T17:38:15.236Z,102209.16
2023-12-09T17:43:19.178Z,102205.56
2023-12-09T17:48:22.055Z,102194.09
2023-12-09T17:53:24.546Z,102188.81
2023-12-09T17:58:26.644Z,102195.81
2023-12-09T18:03:28.854Z,102197.63
2023-12-09T18:08:33.570Z,102182.56
2023-12-09T18:13:35.709Z,102182.66
2023-12-09T18:18:38.531Z,102182.75
2023-12-09T18:23:40.734Z,102186.16
2023-12-09T18:28:45.148Z,102208.31
2023-12-09T18:33:47.493Z,102220.72
2023-12-09T18:38:49.705Z,102225.03
2023-12-09T18:43:51.806Z,102201.19
2023-12-09T18:48:54.269Z,102190.59
2023-12-09T18:53:56.544Z,102187.94
2023-12-09T18:58:58.660Z,102193.25
2023-12-09T19:04:02.204Z,102186.25
2023-12-09T19:09:04.606Z,102180.00
2023-12-09T19:14:06.782Z,102212.75
2023-12-09T19:19:09.192Z,102201.31
2023-12-09T19:24:11.436Z,102198.66
2023-12-09T19:29:17.445Z,102206.59
2023-12-09T19:34:20.209Z,102214.53
2023-12-09T19:39:22.518Z,102220.78
2023-12-09T19:44:25.182Z,102226.00
2023-12-09T19:49:27.493Z,102214.63
2023-12-09T19:54:29.751Z,102216.41
2023-12-09T19:59:32.583Z,102225.28
2023-12-09T20:04:35.031Z,102222.63
2023-12-09T20:09:37.291Z,102221.78
2023-12-09T20:14:39.464Z,102218.19
2023-12-09T20:19:41.723Z,102217.34
2023-12-09T20:24:44.122Z,102228.09
2023-12-09T20:29:46.236Z,102230.66
2023-12-09T20:34:48.973Z,102222.72
2023-12-09T20:39:51.246Z,102225.34
2023-12-09T20:44:53.612Z,102220.84
2023-12-09T20:49:55.746Z,102207.59
2023-12-09T20:54:57.959Z,102219.31
2023-12-09T21:00:00.113Z,102221.94
2023-12-09T21:05:04.871Z,102233.31
2023-12-09T21:10:07.759Z,102227.25
2023-12-09T21:15:09.973Z,102231.63
2023-12-09T21:20:13.002Z,102235.19
2023-12-09T21:25:15.460Z,102237.78
2023-12-09T21:30:17.851Z,102243.06
2023-12-09T21:35:19.943Z,102248.28
2023-12-09T21:40:22.044Z,102241.34
2023-12-09T21:45:24.608Z,102241.44
2023-12-09T21:50:26.887Z,102243.22
2023-12-09T21:55:32.356Z,102229.91
2023-12-09T22:00:34.647Z,102243.16
2023-12-09T22:05:37.087Z,102229.03
2023-12-09T22:10:39.231Z,102224.66
2023-12-09T22:15:41.561Z,102226.38
2023-12-09T22:20:43.737Z,102232.63
2023-12-09T22:25:45.824Z,102223.81
2023-12-09T22:30:47.997Z,102223.81
2023-12-09T22:35:50.254Z,102217.66
2023-12-09T22:40:52.654Z,102219.38
2023-12-09T22:45:54.963Z,102191.09
2023-12-09T22:50:57.222Z,102187.59
2023-12-09T22:56:12.485Z,102191.16
2023-12-09T23:01:16.840Z,102203.53
2023-12-09T23:06:22.421Z,102212.28
2023-12-09T23:11:25.101Z,102235.25
2023-12-09T23:16:27.246Z,102242.28
2023-12-09T23:21:29.429Z,102241.56
2023-12-09T23:26:31.731Z,102254.66
2023-12-09T23:31:39.622Z,102256.53
2023-12-09T23:36:43.813Z,102266.38
2023-12-09T23:41:47.758Z,102257.47
2023-12-09T23:46:49.841Z,102260.91
2023-12-09T23:51:52.003Z,102243.22
2023-12-09T23:56:54.100Z,102221.16
